createdAt,value
2023-01-27T00:00:36.312Z,46.47
2023-01-27T00:03:03.592Z,60.33
2023-01-27T00:05:30.148Z,51.22
2023-01-27T00:07:58.849Z,49.30
2023-01-27T00:10:26.862Z,49.25
2023-01-27T00:13:12.129Z,59.30
2023-01-27T00:15:40.066Z,48.65
2023-01-27T00:18:07.521Z,51.03
2023-01-27T00:20:53.642Z,50.20
2023-01-27T00:23:41.732Z,51.35
2023-01-27T00:26:11.236Z,51.15
2023-01-27T00:28:39.624Z,54.50
2023-01-27T00:31:27.302Z,50.38
2023-01-27T00:33:56.263Z,49.17
2023-01-27T00:36:23.128Z,57.38
2023-01-27T00:38:49.848Z,48.78
2023-01-27T00:41:19.687Z,49.08
2023-01-27T00:43:47.989Z,54.53
2023-01-27T00:46:15.408Z,59.20
2023-01-27T00:48:41.936Z,52.20
2023-01-27T00:51:12.444Z,58.25
2023-01-27T00:53:39.072Z,55.42
2023-01-27T00:56:06.493Z,56.78
2023-01-27T00:58:33.211Z,53.25
2023-01-27T01:01:01.777Z,58.25
2023-01-27T01:03:32.935Z,48.53
2023-01-27T01:06:01.477Z,55.35
2023-01-27T01:08:28.462Z,55.00
2023-01-27T01:10:55.034Z,49.95
2023-01-27T01:13:21.685Z,60.83
2023-01-27T01:15:48.415Z,57.60
2023-01-27T01:18:16.396Z,56.13
2023-01-27T01:20:44.901Z,55.45
2023-01-27T01:23:12.547Z,55.92
2023-01-27T01:25:39.568Z,58.65
2023-01-27T01:28:07.564Z,54.60
2023-01-27T01:30:35.923Z,59.17
2023-01-27T01:33:02.783Z,63.38
2023-01-27T01:35:29.400Z,57.08
2023-01-27T01:37:55.992Z,64.60
2023-01-27T01:40:25.370Z,55.25
2023-01-27T01:42:59.790Z,59.20
2023-01-27T01:45:32.571Z,62.40
2023-01-27T01:48:02.374Z,67.32
2023-01-27T01:50:30.306Z,54.20
2023-01-27T01:52:59.149Z,59.28
2023-01-27T01:55:25.924Z,57.35
2023-01-27T01:57:52.558Z,62.50
2023-01-27T02:00:19.653Z,54.47
2023-01-27T02:02:48.514Z,51.85
2023-01-27T02:05:24.778Z,58.05
2023-01-27T02:08:02.074Z,58.10
2023-01-27T02:10:28.971Z,61.60
2023-01-27T02:12:56.212Z,55.85
2023-01-27T02:15:24.454Z,53.15
2023-01-27T02:17:51.133Z,52.38
2023-01-27T02:20:29.701Z,56.83
2023-01-27T02:23:18.902Z,53.22
2023-01-27T02:25:56.744Z,53.28
2023-01-27T02:28:28.048Z,51.15
2023-01-27T02:30:54.856Z,56.92
2023-01-27T02:33:21.455Z,54.00
2023-01-27T02:35:59.292Z,54.63
2023-01-27T02:38:29.561Z,50.30
2023-01-27T02:40:59.392Z,52.90
2023-01-27T02:43:25.913Z,52.70
2023-01-27T02:45:52.781Z,53.80
2023-01-27T02:48:19.185Z,54.55
2023-01-27T02:50:45.764Z,49.30
2023-01-27T02:53:12.161Z,59.22
2023-01-27T02:55:38.849Z,60.92
2023-01-27T02:58:05.300Z,54.15
2023-01-27T03:00:32.653Z,53.08
2023-01-27T03:02:59.302Z,48.25
2023-01-27T03:05:25.971Z,51.70
2023-01-27T03:07:52.652Z,53.90
2023-01-27T03:10:19.414Z,53.70
2023-01-27T03:12:46.116Z,49.08
2023-01-27T03:15:31.019Z,44.95
2023-01-27T03:18:15.941Z,50.10
2023-01-27T03:20:47.575Z,43.08
2023-01-27T03:23:16.534Z,45.88
2023-01-27T03:25:44.705Z,54.92
2023-01-27T03:28:12.315Z,48.38
2023-01-27T03:30:40.289Z,49.92
2023-01-27T03:33:07.505Z,42.92
2023-01-27T03:35:39.009Z,41.38
2023-01-27T03:40:54.097Z,39.53
2023-01-27T03:43:39.220Z,44.65
2023-01-27T03:46:18.947Z,44.15
2023-01-27T03:48:53.954Z,45.35
2023-01-27T03:51:23.617Z,42.90
2023-01-27T03:53:50.888Z,45.38
2023-01-27T03:56:20.115Z,37.17
2023-01-27T03:58:48.904Z,41.40
2023-01-27T04:01:22.782Z,44.85
2023-01-27T04:04:09.158Z,45.17
2023-01-27T04:07:00.775Z,41.50
2023-01-27T04:09:30.371Z,41.03
2023-01-27T04:12:00.090Z,42.72
2023-01-27T04:14:38.020Z,45.90
2023-01-27T04:17:11.667Z,35.33
2023-01-27T04:22:06.601Z,37.13
2023-01-27T04:24:33.591Z,45.65
2023-01-27T04:27:03.535Z,37.80
2023-01-27T04:29:32.800Z,37.47
2023-01-27T04:31:59.542Z,37.92
2023-01-27T04:34:27.448Z,36.60
2023-01-27T04:36:54.967Z,33.20
2023-01-27T04:39:21.669Z,32.72
2023-01-27T04:41:49.695Z,31.10
2023-01-27T04:44:16.506Z,29.35
2023-01-27T04:46:42.961Z,34.08
2023-01-27T04:49:09.683Z,33.65
2023-01-27T04:51:36.844Z,28.00
2023-01-27T04:54:05.591Z,30.15
2023-01-27T04:56:38.188Z,28.52
2023-01-27T04:59:07.545Z,34.08
2023-01-27T05:01:34.352Z,25.60
2023-01-27T05:04:00.964Z,30.15
2023-01-27T05:06:27.776Z,32.70
2023-01-27T05:08:55.138Z,31.40
2023-01-27T05:11:22.265Z,28.05
2023-01-27T05:13:48.911Z,24.45
2023-01-27T05:16:24.192Z,26.92
2023-01-27T05:18:52.518Z,23.88
2023-01-27T05:21:21.884Z,25.02
2023-01-27T05:23:49.707Z,26.05
2023-01-27T05:26:21.904Z,25.77
2023-01-27T05:28:49.854Z,27.02
2023-01-27T05:31:22.553Z,26.27
2023-01-27T05:33:51.755Z,22.60
2023-01-27T05:36:21.520Z,21.35
2023-01-27T05:38:48.595Z,24.42
2023-01-27T05:41:17.267Z,23.95
2023-01-27T05:43:45.818Z,24.52
2023-01-27T05:46:18.030Z,23.13
2023-01-27T05:48:47.078Z,21.98
2023-01-27T05:51:15.412Z,23.00
2023-01-27T05:53:42.972Z,22.10
2023-01-27T05:56:11.696Z,25.05
2023-01-27T05:58:38.745Z,21.52
2023-01-27T06:01:13.112Z,23.10
2023-01-27T06:03:40.753Z,24.25
2023-01-27T06:06:09.543Z,21.77
2023-01-27T06:08:36.779Z,23.88
2023-01-27T06:11:04.216Z,25.42
2023-01-27T06:13:31.370Z,25.70
2023-01-27T06:15:58.120Z,25.73
2023-01-27T06:18:24.938Z,24.58
2023-01-27T06:20:51.716Z,29.92
2023-01-27T06:23:18.474Z,33.67
2023-01-27T06:25:47.757Z,26.60
2023-01-27T06:28:28.180Z,23.98
2023-01-27T06:30:55.257Z,24.98
2023-01-27T06:33:21.692Z,24.77
2023-01-27T06:35:48.295Z,24.40
2023-01-27T06:38:15.712Z,26.25
2023-01-27T06:40:43.403Z,23.13
2023-01-27T06:43:17.150Z,24.40
2023-01-27T06:45:43.817Z,28.70
2023-01-27T06:48:10.401Z,26.42
2023-01-27T06:50:37.434Z,32.70
2023-01-27T06:53:06.551Z,28.08
2023-01-27T06:55:34.342Z,31.05
2023-01-27T06:58:02.140Z,28.63
2023-01-27T07:00:28.855Z,29.35
2023-01-27T07:02:56.198Z,34.22
2023-01-27T07:05:22.856Z,26.73
2023-01-27T07:07:49.480Z,27.48
2023-01-27T07:10:16.733Z,24.92
2023-01-27T07:12:43.550Z,25.85
2023-01-27T07:15:11.221Z,24.75
2023-01-27T07:17:38.160Z,26.65
2023-01-27T07:20:06.515Z,25.20
2023-01-27T07:22:33.078Z,36.85
2023-01-27T07:24:59.651Z,35.33
2023-01-27T07:27:26.312Z,36.25
2023-01-27T07:29:53.082Z,27.90
2023-01-27T07:32:19.826Z,25.33
2023-01-27T07:34:46.483Z,28.65
2023-01-27T07:37:13.816Z,25.25
2023-01-27T07:39:40.357Z,28.35
2023-01-27T07:42:08.375Z,27.25
2023-01-27T07:44:35.065Z,27.45
2023-01-27T07:47:02.132Z,25.85
2023-01-27T07:49:28.830Z,33.78
2023-01-27T07:51:55.390Z,22.80
2023-01-27T07:54:21.927Z,27.05
2023-01-27T07:56:48.678Z,23.63
2023-01-27T07:59:15.318Z,23.13
2023-01-27T08:01:42.301Z,24.38
2023-01-27T08:04:08.957Z,17.20
2023-01-27T08:06:38.084Z,23.17
2023-01-27T08:09:05.054Z,21.67
2023-01-27T08:11:31.925Z,18.92
2023-01-27T08:13:58.393Z,20.05
2023-01-27T08:16:25.059Z,18.35
2023-01-27T08:18:52.898Z,13.52
2023-01-27T08:21:20.200Z,14.27
2023-01-27T08:23:46.879Z,14.80
2023-01-27T08:26:14.247Z,15.13
2023-01-27T08:28:41.514Z,16.77
2023-01-27T08:31:13.912Z,15.38
2023-01-27T08:33:42.223Z,16.98
2023-01-27T08:36:14.849Z,12.27
2023-01-27T08:38:43.128Z,16.33
2023-01-27T08:41:16.018Z,17.45
2023-01-27T08:43:43.572Z,10.68
2023-01-27T08:46:10.726Z,8.85
2023-01-27T08:48:38.182Z,11.48
2023-01-27T08:51:06.992Z,11.68
2023-01-27T08:53:34.356Z,8.15
2023-01-27T08:56:05.376Z,8.98
2023-01-27T08:58:33.657Z,7.80
2023-01-27T09:01:02.492Z,8.90
2023-01-27T09:03:32.659Z,11.52
2023-01-27T09:05:59.777Z,9.65
2023-01-27T09:08:26.775Z,10.45
2023-01-27T09:10:53.665Z,8.80
2023-01-27T09:13:22.339Z,10.60
2023-01-27T09:15:52.175Z,12.25
2023-01-27T09:18:18.849Z,11.02
2023-01-27T09:20:45.355Z,12.18
2023-01-27T09:23:11.997Z,9.90
2023-01-27T09:25:38.724Z,9.60
2023-01-27T09:28:05.190Z,9.40
2023-01-27T09:30:32.087Z,9.07
2023-01-27T09:33:00.596Z,8.40
2023-01-27T09:35:36.642Z,8.18
2023-01-27T09:38:06.263Z,9.95
2023-01-27T09:40:58.193Z,8.32
2023-01-27T09:43:50.751Z,7.38
2023-01-27T09:46:51.173Z,7.15
2023-01-27T09:49:36.407Z,8.32
2023-01-27T09:52:08.735Z,7.93
2023-01-27T09:54:42.080Z,8.15
2023-01-27T09:57:21.024Z,7.55
2023-01-27T09:59:53.260Z,12.02
2023-01-27T10:02:59.205Z,5.82
2023-01-27T10:05:54.783Z,9.10
2023-01-27T10:08:45.630Z,7.32
2023-01-27T10:11:41.354Z,7.47
2023-01-27T10:14:20.162Z,11.40
2023-01-27T10:17:00.699Z,8.57
2023-01-27T10:20:04.713Z,9.57
2023-01-27T10:22:59.374Z,7.78
2023-01-27T10:25:43.763Z,8.35
2023-01-27T10:28:15.658Z,11.45
2023-01-27T10:30:50.075Z,7.57
2023-01-27T10:33:21.524Z,8.85
2023-01-27T10:35:52.483Z,8.18
2023-01-27T10:38:41.558Z,9.82
2023-01-27T10:41:10.800Z,9.75
2023-01-27T10:43:45.997Z,11.00
2023-01-27T10:46:25.281Z,9.68
2023-01-27T10:49:30.438Z,14.30
2023-01-27T10:52:09.329Z,11.02
2023-01-27T10:54:53.942Z,9.63
2023-01-27T10:57:37.599Z,11.20
2023-01-27T11:03:21.709Z,10.95
2023-01-27T11:05:53.693Z,9.13
2023-01-27T11:08:25.839Z,8.57
2023-01-27T11:11:13.732Z,7.90
2023-01-27T11:13:41.039Z,6.22
2023-01-27T11:16:15.593Z,6.32
2023-01-27T11:18:46.506Z,8.45
2023-01-27T11:21:19.926Z,6.75
2023-01-27T11:23:55.425Z,10.15
2023-01-27T11:26:48.727Z,10.98
2023-01-27T11:29:36.412Z,10.27
2023-01-27T11:32:27.808Z,9.32
2023-01-27T11:35:12.881Z,8.63
2023-01-27T11:37:42.995Z,6.00
2023-01-27T11:40:30.157Z,7.28
2023-01-27T11:43:00.967Z,8.88
2023-01-27T11:45:30.804Z,6.68
2023-01-27T11:48:00.379Z,9.80
2023-01-27T11:50:32.495Z,9.10
2023-01-27T11:53:18.429Z,8.48
2023-01-27T11:55:53.004Z,6.80
2023-01-27T11:58:25.556Z,6.00
2023-01-27T12:00:57.359Z,5.53
2023-01-27T12:03:52.917Z,7.88
2023-01-27T12:06:46.713Z,9.35
2023-01-27T12:09:33.102Z,6.28
2023-01-27T12:12:14.959Z,7.28
2023-01-27T12:14:59.234Z,6.93
2023-01-27T12:17:31.476Z,6.90
2023-01-27T12:20:04.002Z,6.72
2023-01-27T12:22:40.283Z,10.55
2023-01-27T12:25:16.603Z,5.28
2023-01-27T12:27:52.509Z,6.43
2023-01-27T12:30:24.745Z,8.20
2023-01-27T12:32:51.958Z,7.15
2023-01-27T12:35:23.640Z,6.90
2023-01-27T12:37:57.304Z,9.70
2023-01-27T12:40:25.934Z,7.22
2023-01-27T12:43:01.632Z,10.43
2023-01-27T12:45:38.191Z,7.68
2023-01-27T12:48:07.630Z,8.38
2023-01-27T12:50:36.207Z,7.88
2023-01-27T12:53:12.943Z,11.80
2023-01-27T12:56:08.099Z,8.82
2023-01-27T12:58:38.792Z,8.43
2023-01-27T13:01:20.430Z,11.93
2023-01-27T13:03:53.716Z,10.80
2023-01-27T13:06:25.509Z,10.13
2023-01-27T13:08:53.531Z,8.63
2023-01-27T13:11:32.844Z,10.23
2023-01-27T13:13:59.370Z,10.88
2023-01-27T13:16:30.359Z,8.65
2023-01-27T13:18:59.674Z,8.65
2023-01-27T13:21:38.502Z,7.32
2023-01-27T13:24:15.127Z,7.88
2023-01-27T13:26:42.065Z,7.45
2023-01-27T13:29:08.539Z,8.68
2023-01-27T13:31:44.374Z,8.85
2023-01-27T13:34:10.890Z,7.20
2023-01-27T13:37:16.409Z,11.48
2023-01-27T13:40:02.966Z,8.63
2023-01-27T13:42:44.908Z,9.43
2023-01-27T13:45:22.640Z,6.85
2023-01-27T13:48:16.477Z,9.00
2023-01-27T13:50:46.779Z,6.47
2023-01-27T13:53:17.798Z,8.82
2023-01-27T13:55:58.028Z,8.05
2023-01-27T13:58:39.423Z,5.95
2023-01-27T14:01:24.156Z,15.18
2023-01-27T14:04:20.345Z,8.77
2023-01-27T14:07:17.346Z,11.73
2023-01-27T14:10:13.823Z,8.45
2023-01-27T14:12:52.669Z,12.13
2023-01-27T14:15:43.430Z,11.70
2023-01-27T14:18:29.274Z,15.00
2023-01-27T14:21:13.186Z,25.55
2023-01-27T14:26:44.033Z,19.95
2023-01-27T14:29:27.230Z,14.25
2023-01-27T14:32:06.329Z,13.32
2023-01-27T14:34:47.396Z,12.32
2023-01-27T14:37:22.185Z,9.02
2023-01-27T14:40:09.917Z,10.13
2023-01-27T14:42:55.925Z,21.13
2023-01-27T14:45:34.801Z,11.68
2023-01-27T14:48:39.061Z,22.25
2023-01-27T14:51:13.021Z,13.60
2023-01-27T14:53:42.340Z,9.48
2023-01-27T14:56:21.068Z,6.57
2023-01-27T14:59:09.643Z,8.15
2023-01-27T15:01:53.090Z,8.35
2023-01-27T15:04:35.647Z,6.57
2023-01-27T15:07:16.293Z,7.03
2023-01-27T15:09:55.366Z,7.03
2023-01-27T15:13:02.779Z,4.53
2023-01-27T15:16:02.019Z,13.98
2023-01-27T15:18:48.197Z,9.77
2023-01-27T15:21:45.729Z,8.52
2023-01-27T15:24:18.218Z,10.48
2023-01-27T15:26:47.706Z,7.40
2023-01-27T15:29:17.911Z,10.95
2023-01-27T15:32:25.161Z,10.23
2023-01-27T15:34:53.937Z,8.32
2023-01-27T15:37:23.746Z,6.95
2023-01-27T15:40:11.368Z,5.97
2023-01-27T15:43:02.482Z,8.05
2023-01-27T15:45:36.279Z,5.82
2023-01-27T15:48:10.988Z,5.20
2023-01-27T15:50:45.642Z,4.40
2023-01-27T15:53:15.776Z,6.97
2023-01-27T15:55:52.546Z,4.93
2023-01-27T15:58:36.303Z,4.13
2023-01-27T16:01:05.650Z,4.00
2023-01-27T16:03:38.001Z,6.90
2023-01-27T16:06:14.931Z,4.30
2023-01-27T16:08:57.814Z,5.30
2023-01-27T16:11:30.695Z,5.63
2023-01-27T16:14:12.407Z,7.07
2023-01-27T16:16:40.364Z,5.50
2023-01-27T16:19:11.417Z,17.20
2023-01-27T16:21:49.551Z,16.83
2023-01-27T16:24:25.157Z,15.50
2023-01-27T16:27:17.182Z,11.32
2023-01-27T16:30:27.805Z,13.23
2023-01-27T16:33:13.352Z,9.27
2023-01-27T16:35:59.433Z,7.68
2023-01-27T16:38:32.461Z,8.82
2023-01-27T16:41:03.838Z,6.47
2023-01-27T16:44:02.673Z,7.07
2023-01-27T16:46:38.175Z,8.80
2023-01-27T16:49:16.285Z,5.75
2023-01-27T16:51:44.792Z,5.78
2023-01-27T16:54:31.634Z,6.25
2023-01-27T16:57:05.058Z,7.05
2023-01-27T17:02:12.806Z,9.32
2023-01-27T17:04:39.704Z,8.32
2023-01-27T17:07:12.062Z,6.47
2023-01-27T17:09:51.948Z,9.73
2023-01-27T17:12:33.461Z,10.38
2023-01-27T17:15:10.312Z,8.63
2023-01-27T17:17:40.844Z,7.72
2023-01-27T17:20:20.084Z,24.63
2023-01-27T17:22:52.998Z,47.03
2023-01-27T17:25:25.671Z,10.35
2023-01-27T17:27:52.414Z,5.83
2023-01-27T17:30:26.260Z,29.17
2023-01-27T17:32:58.982Z,11.05
2023-01-27T17:35:28.958Z,7.47
2023-01-27T17:38:14.591Z,11.77
2023-01-27T17:40:44.827Z,9.70
2023-01-27T17:43:32.531Z,10.48
2023-01-27T17:46:05.214Z,11.18
2023-01-27T17:48:40.881Z,11.60
2023-01-27T17:51:21.051Z,8.63
2023-01-27T17:53:49.611Z,7.85
2023-01-27T17:56:23.176Z,8.18
2023-01-27T18:01:20.960Z,8.77
2023-01-27T18:03:53.811Z,10.15
2023-01-27T18:06:30.019Z,11.23
2023-01-27T18:09:01.396Z,12.40
2023-01-27T18:11:31.943Z,8.90
2023-01-27T18:14:09.891Z,7.25
2023-01-27T18:16:36.673Z,10.02
2023-01-27T18:19:21.228Z,8.10
2023-01-27T18:21:48.232Z,5.22
2023-01-27T18:24:26.013Z,6.63
2023-01-27T18:26:52.844Z,6.38
2023-01-27T18:29:25.045Z,6.75
2023-01-27T18:31:58.166Z,6.03
2023-01-27T18:34:28.501Z,5.43
2023-01-27T18:36:57.997Z,6.82
2023-01-27T18:39:41.492Z,4.47
2023-01-27T18:42:16.426Z,5.97
2023-01-27T18:44:43.394Z,5.20
2023-01-27T18:47:18.663Z,5.15
2023-01-27T18:49:51.723Z,7.53
2023-01-27T18:52:19.099Z,6.15
2023-01-27T18:54:46.171Z,6.20
2023-01-27T18:57:12.762Z,5.03
2023-01-27T18:59:39.370Z,3.17
2023-01-27T19:02:14.447Z,4.28
2023-01-27T19:04:41.056Z,3.78
2023-01-27T19:07:16.003Z,4.57
2023-01-27T19:09:44.360Z,3.33
2023-01-27T19:12:11.672Z,6.57
2023-01-27T19:14:39.499Z,3.47
2023-01-27T19:17:15.459Z,4.60
2023-01-27T19:19:43.476Z,4.97
2023-01-27T19:22:15.516Z,4.78
2023-01-27T19:24:43.614Z,6.20
2023-01-27T19:27:12.279Z,5.55
2023-01-27T19:29:38.866Z,4.18
2023-01-27T19:32:06.016Z,6.35
2023-01-27T19:34:32.708Z,4.35
2023-01-27T19:36:59.248Z,6.05
2023-01-27T19:39:33.228Z,4.85
2023-01-27T19:41:59.895Z,5.70
2023-01-27T19:44:27.404Z,5.40
2023-01-27T19:46:55.765Z,5.72
2023-01-27T19:49:22.439Z,5.85
2023-01-27T19:51:49.138Z,6.82
2023-01-27T19:54:17.171Z,10.52
2023-01-27T19:56:44.709Z,6.63
2023-01-27T19:59:12.601Z,6.07
2023-01-27T20:01:39.309Z,6.90
2023-01-27T20:04:06.065Z,6.10
2023-01-27T20:06:38.833Z,6.20
2023-01-27T20:09:06.175Z,6.78
2023-01-27T20:11:32.641Z,5.97
2023-01-27T20:14:00.585Z,6.90
2023-01-27T20:16:27.318Z,5.22
2023-01-27T20:18:54.128Z,5.25
2023-01-27T20:21:21.047Z,4.25
2023-01-27T20:23:48.184Z,6.45
2023-01-27T20:26:20.401Z,4.88
2023-01-27T20:28:48.911Z,5.93
2023-01-27T20:31:22.661Z,6.18
2023-01-27T20:33:52.894Z,6.75
2023-01-27T20:36:22.501Z,6.35
2023-01-27T20:38:50.360Z,4.32
2023-01-27T20:41:20.499Z,5.15
2023-01-27T20:43:47.532Z,6.25
2023-01-27T20:46:17.793Z,6.97
2023-01-27T20:48:53.575Z,5.50
2023-01-27T20:51:20.321Z,6.28
2023-01-27T20:53:47.085Z,3.55
2023-01-27T20:56:16.352Z,4.57
2023-01-27T20:58:42.939Z,3.97
2023-01-27T21:01:12.059Z,4.70
2023-01-27T21:03:47.470Z,4.90
2023-01-27T21:06:15.916Z,4.82
2023-01-27T21:08:43.692Z,3.25
2023-01-27T21:11:13.206Z,5.38
2023-01-27T21:13:39.985Z,7.68
2023-01-27T21:16:07.441Z,5.25
2023-01-27T21:18:35.225Z,5.22
2023-01-27T21:21:04.309Z,4.70
2023-01-27T21:23:33.092Z,7.18
2023-01-27T21:26:05.463Z,4.93
2023-01-27T21:28:33.955Z,6.38
2023-01-27T21:31:16.584Z,6.63
2023-01-27T21:33:45.888Z,8.05
2023-01-27T21:36:12.681Z,7.20
2023-01-27T21:38:39.923Z,6.20
2023-01-27T21:41:13.165Z,4.80
2023-01-27T21:43:58.612Z,4.93
2023-01-27T21:46:25.219Z,8.45
2023-01-27T21:48:55.080Z,3.83
2023-01-27T21:51:21.735Z,4.10
2023-01-27T21:53:48.749Z,2.88
2023-01-27T21:56:15.422Z,5.07
2023-01-27T21:58:42.040Z,4.40
2023-01-27T22:01:10.450Z,4.60
2023-01-27T22:03:37.961Z,5.18
2023-01-27T22:06:07.086Z,4.63
2023-01-27T22:08:34.765Z,4.20
2023-01-27T22:11:11.666Z,5.97
2023-01-27T22:13:39.511Z,6.00
2023-01-27T22:16:07.122Z,6.45
2023-01-27T22:18:33.801Z,8.73
2023-01-27T22:21:03.421Z,5.05
2023-01-27T22:23:30.099Z,9.88
2023-01-27T22:25:57.043Z,6.03
2023-01-27T22:28:24.327Z,6.93
2023-01-27T22:30:51.085Z,11.55
2023-01-27T22:33:17.998Z,6.53
2023-01-27T22:35:44.645Z,7.82
2023-01-27T22:38:11.316Z,7.40
2023-01-27T22:40:38.035Z,8.27
2023-01-27T22:43:10.126Z,4.80
2023-01-27T22:45:40.585Z,9.10
2023-01-27T22:48:08.886Z,5.57
2023-01-27T22:50:36.579Z,6.55
2023-01-27T22:53:05.344Z,4.47
2023-01-27T22:55:32.293Z,7.68
2023-01-27T22:57:59.165Z,3.75
2023-01-27T23:00:25.672Z,3.42
2023-01-27T23:02:52.182Z,4.93
2023-01-27T23:05:18.798Z,3.30
2023-01-27T23:07:47.525Z,5.55
2023-01-27T23:10:14.345Z,4.47
2023-01-27T23:12:41.957Z,5.53
2023-01-27T23:15:09.473Z,3.63
2023-01-27T23:17:36.463Z,7.55
2023-01-27T23:20:03.742Z,6.53
2023-01-27T23:22:33.231Z,7.40
2023-01-27T23:25:00.121Z,5.38
2023-01-27T23:27:29.003Z,4.40
2023-01-27T23:29:55.824Z,6.18
2023-01-27T23:32:22.581Z,9.70
2023-01-27T23:34:49.332Z,4.35
2023-01-27T23:37:17.226Z,4.65
2023-01-27T23:39:49.065Z,3.53
2023-01-27T23:42:17.123Z,6.28
2023-01-27T23:44:43.934Z,5.97
2023-01-27T23:47:12.681Z,5.55
2023-01-27T23:49:40.384Z,3.15
2023-01-27T23:52:08.507Z,3.28
2023-01-27T23:54:35.316Z,4.35
2023-01-27T23:57:02.107Z,3.05
2023-01-27T23:59:30.346Z,4.88
